sensor_id;sensor_type;location;lat;lon;timestamp;pressure;altitude;pressure_sealevel;temperature;humidity
45541;BME280;31265;49.680;8.608;2022-09-01T00:00:09;100793.09;;;17.56;100.00
45541;BME280;31265;49.680;8.608;2022-09-01T00:02:39;100787.06;;;17.50;100.00
45541;BME280;31265;49.680;8.608;2022-09-01T00:05:09;100792.31;;;17.44;100.00
45541;BME280;31265;49.680;8.608;2022-09-01T00:07:39;100780.34;;;17.44;100.00
45541;BME280;31265;49.680;8.608;2022-09-01T00:10:08;100783.88;;;17.44;100.00
45541;BME280;31265;49.680;8.608;2022-09-01T00:12:37;100782.41;;;17.43;100.00
45541;BME280;31265;49.680;8.608;2022-09-01T00:15:08;100776.41;;;17.58;100.00
45541;BME280;31265;49.680;8.608;2022-09-01T00:17:36;100784.16;;;17.48;100.00
45541;BME280;31265;49.680;8.608;2022-09-01T00:20:05;100785.09;;;17.41;100.00
45541;BME280;31265;49.680;8.608;2022-09-01T00:22:34;100788.22;;;17.35;100.00
45541;BME280;31265;49.680;8.608;2022-09-01T00:25:05;100784.53;;;17.33;100.00
45541;BME280;31265;49.680;8.608;2022-09-01T00:27:34;100787.34;;;17.33;100.00
45541;BME280;31265;49.680;8.608;2022-09-01T00:30:03;100784.75;;;17.47;100.00
45541;BME280;31265;49.680;8.608;2022-09-01T00:32:31;100783.75;;;17.42;100.00
45541;BME280;31265;49.680;8.608;2022-09-01T00:35:00;100786.22;;;17.48;100.00
45541;BME280;31265;49.680;8.608;2022-09-01T00:37:28;100774.19;;;17.35;100.00
45541;BME280;31265;49.680;8.608;2022-09-01T00:39:56;100782.13;;;17.60;100.00
45541;BME280;31265;49.680;8.608;2022-09-01T00:42:25;100770.66;;;17.35;100.00
45541;BME280;31265;49.680;8.608;2022-09-01T00:44:53;100782.59;;;17.35;100.00
45541;BME280;31265;49.680;8.608;2022-09-01T00:47:22;100772.03;;;17.46;100.00
45541;BME280;31265;49.680;8.608;2022-09-01T00:49:50;100776.53;;;17.39;100.00
45541;BME280;31265;49.680;8.608;2022-09-01T00:52:22;100770.03;;;17.15;100.00
45541;BME280;31265;49.680;8.608;2022-09-01T00:54:56;100767.22;;;17.15;100.00
45541;BME280;31265;49.680;8.608;2022-09-01T00:57:27;100767.19;;;17.25;100.00
45541;BME280;31265;49.680;8.608;2022-09-01T00:59:56;100760.75;;;17.12;100.00
45541;BME280;31265;49.680;8.608;2022-09-01T01:02:25;100767.91;;;17.04;100.00
45541;BME280;31265;49.680;8.608;2022-09-01T01:04:53;100763.38;;;16.89;100.00
45541;BME280;31265;49.680;8.608;2022-09-01T01:07:27;100765.00;;;16.92;100.00
45541;BME280;31265;49.680;8.608;2022-09-01T01:09:55;100767.50;;;16.88;100.00
45541;BME280;31265;49.680;8.608;2022-09-01T01:12:23;100770.47;;;16.90;100.00
45541;BME280;31265;49.680;8.608;2022-09-01T01:14:57;100761.53;;;17.03;100.00
45541;BME280;31265;49.680;8.608;2022-09-01T01:17:26;100762.69;;;17.10;100.00
45541;BME280;31265;49.680;8.608;2022-09-01T01:19:55;100760.94;;;17.05;100.00
45541;BME280;31265;49.680;8.608;2022-09-01T01:22:48;100772.78;;;16.93;100.00
45541;BME280;31265;49.680;8.608;2022-09-01T01:25:33;100774.28;;;16.94;100.00
45541;BME280;31265;49.680;8.608;2022-09-01T01:28:07;100770.75;;;16.94;100.00
45541;BME280;31265;49.680;8.608;2022-09-01T01:30:37;100770.47;;;16.90;100.00
45541;BME280;31265;49.680;8.608;2022-09-01T01:33:06;100768.53;;;16.92;100.00
45541;BME280;31265;49.680;8.608;2022-09-01T01:35:35;100770.09;;;17.05;100.00
45541;BME280;31265;49.680;8.608;2022-09-01T01:38:04;100770.47;;;16.90;100.00
45541;BME280;31265;49.680;8.608;2022-09-01T01:40:36;100771.38;;;16.83;100.00
45541;BME280;31265;49.680;8.608;2022-09-01T01:43:06;100765.19;;;16.74;100.00
45541;BME280;31265;49.680;8.608;2022-09-01T01:45:37;100770.50;;;16.70;100.00
45541;BME280;31265;49.680;8.608;2022-09-01T01:48:05;100766.03;;;16.46;100.00
45541;BME280;31265;49.680;8.608;2022-09-01T01:50:36;100765.00;;;16.41;100.00
45541;BME280;31265;49.680;8.608;2022-09-01T01:53:06;100767.56;;;16.18;100.00
45541;BME280;31265;49.680;8.608;2022-09-01T01:55:40;100766.41;;;16.01;100.00
45541;BME280;31265;49.680;8.608;2022-09-01T01:58:10;100768.03;;;15.75;100.00
45541;BME280;31265;49.680;8.608;2022-09-01T02:00:42;100772.09;;;15.55;100.00
45541;BME280;31265;49.680;8.608;2022-09-01T02:03:13;100774.75;;;15.33;100.00
45541;BME280;31265;49.680;8.608;2022-09-01T02:05:45;100773.69;;;15.19;100.00
45541;BME280;31265;49.680;8.608;2022-09-01T02:08:14;100770.25;;;15.11;100.00
45541;BME280;31265;49.680;8.608;2022-09-01T02:10:52;100764.97;;;15.15;100.00
45541;BME280;31265;49.680;8.608;2022-09-01T02:13:23;100767.59;;;15.03;100.00
45541;BME280;31265;49.680;8.608;2022-09-01T02:15:59;100763.75;;;14.98;100.00
45541;BME280;31265;49.680;8.608;2022-09-01T02:18:31;100773.41;;;14.88;100.00
45541;BME280;31265;49.680;8.608;2022-09-01T02:21:03;100775.16;;;14.83;100.00
45541;BME280;31265;49.680;8.608;2022-09-01T02:23:33;100775.44;;;14.77;100.00
45541;BME280;31265;49.680;8.608;2022-09-01T02:26:04;100767.19;;;14.70;100.00
45541;BME280;31265;49.680;8.608;2022-09-01T02:28:46;100770.81;;;14.62;100.00
45541;BME280;31265;49.680;8.608;2022-09-01T02:31:25;100767.28;;;14.62;100.00
45541;BME280;31265;49.680;8.608;2022-09-01T02:33:58;100771.97;;;14.59;100.00
45541;BME280;31265;49.680;8.608;2022-09-01T02:36:27;100765.34;;;14.55;100.00
45541;BME280;31265;49.680;8.608;2022-09-01T02:38:58;100760.13;;;14.51;100.00
45541;BME280;31265;49.680;8.608;2022-09-01T02:41:28;100764.09;;;14.48;100.00
45541;BME280;31265;49.680;8.608;2022-09-01T02:44:00;100756.00;;;14.43;100.00
45541;BME280;31265;49.680;8.608;2022-09-01T02:46:29;100757.91;;;14.40;100.00
45541;BME280;31265;49.680;8.608;2022-09-01T02:48:58;100758.91;;;14.35;100.00
45541;BME280;31265;49.680;8.608;2022-09-01T02:51:27;100761.34;;;14.31;100.00
45541;BME280;31265;49.680;8.608;2022-09-01T02:53:56;100763.97;;;14.29;100.00
45541;BME280;31265;49.680;8.608;2022-09-01T02:56:24;100769.09;;;14.23;100.00
45541;BME280;31265;49.680;8.608;2022-09-01T02:58:54;100761.72;;;14.17;100.00
45541;BME280;31265;49.680;8.608;2022-09-01T03:01:26;100768.59;;;14.16;100.00
45541;BME280;31265;49.680;8.608;2022-09-01T03:03:59;100757.44;;;14.16;100.00
45541;BME280;31265;49.680;8.608;2022-09-01T03:06:28;100762.19;;;14.24;100.00
45541;BME280;31265;49.680;8.608;2022-09-01T03:09:03;100764.25;;;14.23;100.00
45541;BME280;31265;49.680;8.608;2022-09-01T03:11:34;100764.81;;;14.22;100.00
45541;BME280;31265;49.680;8.608;2022-09-01T03:14:06;100765.41;;;14.20;100.00
45541;BME280;31265;49.680;8.608;2022-09-01T03:16:34;100763.63;;;14.15;100.00
45541;BME280;31265;49.680;8.608;2022-09-01T03:19:04;100760.94;;;14.07;100.00
45541;BME280;31265;49.680;8.608;2022-09-01T03:21:34;100767.63;;;14.04;100.00
45541;BME280;31265;49.680;8.608;2022-09-01T03:24:03;100762.06;;;14.04;100.00
45541;BME280;31265;49.680;8.608;2022-09-01T03:26:31;100767.63;;;14.04;100.00
45541;BME280;31265;49.680;8.608;2022-09-01T03:28:59;100761.06;;;14.09;100.00
45541;BME280;31265;49.680;8.608;2022-09-01T03:31:29;100766.50;;;14.07;100.00
45541;BME280;31265;49.680;8.608;2022-09-01T03:34:01;100771.50;;;14.09;100.00
45541;BME280;31265;49.680;8.608;2022-09-01T03:36:35;100766.66;;;14.09;100.00
45541;BME280;31265;49.680;8.608;2022-09-01T03:39:04;100767.06;;;14.06;100.00
45541;BME280;31265;49.680;8.608;2022-09-01T03:41:43;100771.03;;;14.03;100.00
45541;BME280;31265;49.680;8.608;2022-09-01T03:44:11;100770.28;;;14.02;100.00
45541;BME280;31265;49.680;8.608;2022-09-01T03:46:44;100773.56;;;14.08;100.00
45541;BME280;31265;49.680;8.608;2022-09-01T03:49:12;100770.28;;;14.02;100.00
45541;BME280;31265;49.680;8.608;2022-09-01T03:51:43;100770.34;;;13.94;100.00
45541;BME280;31265;49.680;8.608;2022-09-01T03:54:11;100769.63;;;13.94;100.00
45541;BME280;31265;49.680;8.608;2022-09-01T03:56:40;100767.00;;;13.96;100.00
45541;BME280;31265;49.680;8.608;2022-09-01T03:59:14;100771.84;;;13.95;100.00
45541;BME280;31265;49.680;8.608;2022-09-01T04:01:46;100764.13;;;14.04;100.00
45541;BME280;31265;49.680;8.608;2022-09-01T04:04:15;100768.53;;;14.07;100.00
45541;BME280;31265;49.680;8.608;2022-09-01T04:06:44;100774.13;;;14.07;100.00
45541;BME280;31265;49.680;8.608;2022-09-01T04:09:13;100779.41;;;14.03;100.00
45541;BME280;31265;49.680;8.608;2022-09-01T04:11:43;100781.13;;;13.98;100.00
45541;BME280;31265;49.680;8.608;2022-09-01T04:14:14;100783.56;;;13.94;100.00
45541;BME280;31265;49.680;8.608;2022-09-01T04:16:44;100788.25;;;13.91;100.00
45541;BME280;31265;49.680;8.608;2022-09-01T04:19:35;100787.34;;;13.89;100.00
45541;BME280;31265;49.680;8.608;2022-09-01T04:22:06;100783.81;;;13.88;100.00
45541;BME280;31265;49.680;8.608;2022-09-01T04:24:43;100780.31;;;13.88;100.00
45541;BME280;31265;49.680;8.608;2022-09-01T04:27:14;100786.78;;;13.90;100.00
45541;BME280;31265;49.680;8.608;2022-09-01T04:29:44;100790.78;;;13.97;100.00
45541;BME280;31265;49.680;8.608;2022-09-01T04:32:12;100785.19;;;13.97;100.00
45541;BME280;31265;49.680;8.608;2022-09-01T04:34:45;100781.44;;;14.19;100.00
45541;BME280;31265;49.680;8.608;2022-09-01T04:37:16;100782.63;;;14.26;100.00
45541;BME280;31265;49.680;8.608;2022-09-01T04:39:48;100790.78;;;14.14;100.00
45541;BME280;31265;49.680;8.608;2022-09-01T04:42:24;100788.41;;;14.11;100.00
45541;BME280;31265;49.680;8.608;2022-09-01T04:44:54;100790.47;;;14.10;100.00
45541;BME280;31265;49.680;8.608;2022-09-01T04:47:23;100789.63;;;14.17;100.00
45541;BME280;31265;49.680;8.608;2022-09-01T04:50:05;100789.78;;;14.19;100.00
45541;BME280;31265;49.680;8.608;2022-09-01T04:52:42;100791.91;;;14.29;100.00
45541;BME280;31265;49.680;8.608;2022-09-01T04:55:23;100800.09;;;14.27;100.00
45541;BME280;31265;49.680;8.608;2022-09-01T04:57:54;100798.63;;;14.26;100.00
45541;BME280;31265;49.680;8.608;2022-09-01T05:00:25;100798.88;;;14.37;100.00
45541;BME280;31265;49.680;8.608;2022-09-01T05:03:00;100798.13;;;14.37;100.00
45541;BME280;31265;49.680;8.608;2022-09-01T05:05:51;100793.50;;;14.49;100.00
45541;BME280;31265;49.680;8.608;2022-09-01T05:08:21;100797.41;;;14.63;100.00
45541;BME280;31265;49.680;8.608;2022-09-01T05:10:54;100794.00;;;14.55;100.00
45541;BME280;31265;49.680;8.608;2022-09-01T05:13:35;100787.72;;;14.65;100.00
45541;BME280;31265;49.680;8.608;2022-09-01T05:16:07;100789.75;;;14.54;100.00
45541;BME280;31265;49.680;8.608;2022-09-01T05:18:39;100794.78;;;14.66;100.00
45541;BME280;31265;49.680;8.608;2022-09-01T05:21:14;100784.06;;;14.62;100.00
45541;BME280;31265;49.680;8.608;2022-09-01T05:23:44;100796.28;;;14.67;100.00
45541;BME280;31265;49.680;8.608;2022-09-01T05:26:15;100787.34;;;14.78;100.00
45541;BME280;31265;49.680;8.608;2022-09-01T05:28:47;100781.31;;;14.72;100.00
45541;BME280;31265;49.680;8.608;2022-09-01T05:31:16;100787.06;;;14.74;100.00
45541;BME280;31265;49.680;8.608;2022-09-01T05:33:47;100783.81;;;14.77;100.00
45541;BME280;31265;49.680;8.608;2022-09-01T05:36:20;100795.03;;;14.87;100.00
45541;BME280;31265;49.680;8.608;2022-09-01T05:38:50;100791.88;;;15.10;100.00
45541;BME280;31265;49.680;8.608;2022-09-01T05:41:19;100800.72;;;15.16;100.00
45541;BME280;31265;49.680;8.608;2022-09-01T05:43:50;100800.13;;;15.18;100.00
45541;BME280;31265;49.680;8.608;2022-09-01T05:46:26;100800.72;;;15.16;100.00
45541;BME280;31265;49.680;8.608;2022-09-01T05:48:56;100795.56;;;15.13;100.00
45541;BME280;31265;49.680;8.608;2022-09-01T05:51:28;100791.63;;;15.25;100.00
45541;BME280;31265;49.680;8.608;2022-09-01T05:54:12;100798.31;;;15.49;100.00
45541;BME280;31265;49.680;8.608;2022-09-01T05:56:42;100799.31;;;15.44;100.00
45541;BME280;31265;49.680;8.608;2022-09-01T05:59:15;100801.47;;;15.73;100.00
45541;BME280;31265;49.680;8.608;2022-09-01T06:01:54;100802.47;;;15.68;100.00
45541;BME280;31265;49.680;8.608;2022-09-01T06:04:24;100803.94;;;15.69;100.00
45541;BME280;31265;49.680;8.608;2022-09-01T06:06:57;100806.19;;;15.90;100.00
45541;BME280;31265;49.680;8.608;2022-09-01T06:09:36;100801.59;;;15.95;100.00
45541;BME280;31265;49.680;8.608;2022-09-01T06:12:05;100810.28;;;16.08;100.00
45541;BME280;31265;49.680;8.608;2022-09-01T06:14:44;100807.91;;;16.24;100.00
45541;BME280;31265;49.680;8.608;2022-09-01T06:17:14;100806.44;;;16.23;100.00
45541;BME280;31265;49.680;8.608;2022-09-01T06:19:45;100805.25;;;16.26;100.00
45541;BME280;31265;49.680;8.608;2022-09-01T06:22:16;100803.78;;;16.45;100.00
45541;BME280;31265;49.680;8.608;2022-09-01T06:24:44;100807.53;;;16.59;100.00
45541;BME280;31265;49.680;8.608;2022-09-01T06:27:21;100815.34;;;16.80;100.00
45541;BME280;31265;49.680;8.608;2022-09-01T06:29:49;100808.28;;;16.79;100.00
45541;BME280;31265;49.680;8.608;2022-09-01T06:32:22;100811.00;;;16.89;100.00
45541;BME280;31265;49.680;8.608;2022-09-01T06:34:52;100810.13;;;16.86;100.00
45541;BME280;31265;49.680;8.608;2022-09-01T06:37:25;100807.47;;;16.88;100.00
45541;BME280;31265;49.680;8.608;2022-09-01T06:40:00;100810.25;;;16.98;100.00
45541;BME280;31265;49.680;8.608;2022-09-01T06:42:30;100805.56;;;16.91;100.00
45541;BME280;31265;49.680;8.608;2022-09-01T06:45:01;100804.63;;;16.98;100.00
45541;BME280;31265;49.680;8.608;2022-09-01T06:47:30;100803.28;;;17.09;100.00
45541;BME280;31265;49.680;8.608;2022-09-01T06:49:59;100805.50;;;17.32;100.00
45541;BME280;31265;49.680;8.608;2022-09-01T06:52:29;100810.63;;;17.88;100.00
45541;BME280;31265;49.680;8.608;2022-09-01T06:55:18;100811.06;;;18.51;100.00
45541;BME280;31265;49.680;8.608;2022-09-01T06:57:47;100823.47;;;18.81;100.00
45541;BME280;31265;49.680;8.608;2022-09-01T07:00:35;100827.13;;;18.72;100.00
45541;BME280;31265;49.680;8.608;2022-09-01T07:03:10;100823.66;;;18.62;100.00
45541;BME280;31265;49.680;8.608;2022-09-01T07:06:13;100826.91;;;18.80;100.00
45541;BME280;31265;49.680;8.608;2022-09-01T07:09:41;100824.47;;;19.09;100.00
45541;BME280;31265;49.680;8.608;2022-09-01T07:12:38;100830.19;;;19.23;100.00
45541;BME280;31265;49.680;8.608;2022-09-01T07:15:32;100832.13;;;19.56;100.00
45541;BME280;31265;49.680;8.608;2022-09-01T07:18:22;100829.72;;;19.88;98.91
45541;BME280;31265;49.680;8.608;2022-09-01T07:20:53;100832.03;;;20.03;94.77
45541;BME280;31265;49.680;8.608;2022-09-01T07:23:35;100835.97;;;19.98;95.27
45541;BME280;31265;49.680;8.608;2022-09-01T07:26:26;100828.69;;;20.32;93.14
45541;BME280;31265;49.680;8.608;2022-09-01T07:28:56;100831.84;;;20.38;90.41
45541;BME280;31265;49.680;8.608;2022-09-01T07:31:30;100836.63;;;20.36;92.32
45541;BME280;31265;49.680;8.608;2022-09-01T07:34:17;100840.19;;;20.11;93.56
45541;BME280;31265;49.680;8.608;2022-09-01T07:37:08;100834.69;;;20.13;94.28
45541;BME280;31265;49.680;8.608;2022-09-01T07:39:57;100836.41;;;20.32;91.89
45541;BME280;31265;49.680;8.608;2022-09-01T07:43:07;100838.38;;;20.29;92.33
45541;BME280;31265;49.680;8.608;2022-09-01T07:45:55;100837.81;;;20.19;94.70
45541;BME280;31265;49.680;8.608;2022-09-01T07:48:27;100839.91;;;20.18;93.65
45541;BME280;31265;49.680;8.608;2022-09-01T07:51:18;100840.72;;;20.33;90.96
45541;BME280;31265;49.680;8.608;2022-09-01T07:54:05;100844.59;;;20.14;95.15
45541;BME280;31265;49.680;8.608;2022-09-01T07:56:33;100844.06;;;20.43;91.76
45541;BME280;31265;49.680;8.608;2022-09-01T07:59:09;100841.19;;;20.29;92.14
45541;BME280;31265;49.680;8.608;2022-09-01T08:01:48;100845.25;;;20.52;91.02
45541;BME280;31265;49.680;8.608;2022-09-01T08:04:19;100842.97;;;21.01;89.23
45541;BME280;31265;49.680;8.608;2022-09-01T08:06:49;100845.59;;;20.97;95.25
45541;BME280;31265;49.680;8.608;2022-09-01T08:09:18;100847.47;;;20.93;90.19
45541;BME280;31265;49.680;8.608;2022-09-01T08:12:05;100846.53;;;21.16;85.86
45541;BME280;31265;49.680;8.608;2022-09-01T08:14:40;100841.50;;;21.00;88.18
45541;BME280;31265;49.680;8.608;2022-09-01T08:17:08;100851.97;;;21.12;86.67
45541;BME280;31265;49.680;8.608;2022-09-01T08:19:59;100846.97;;;21.38;83.07
45541;BME280;31265;49.680;8.608;2022-09-01T08:22:50;100838.06;;;20.88;88.27
45541;BME280;31265;49.680;8.608;2022-09-01T08:25:29;100846.13;;;21.35;88.68
45541;BME280;31265;49.680;8.608;2022-09-01T08:27:58;100852.13;;;21.99;79.56
45541;BME280;31265;49.680;8.608;2022-09-01T08:30:28;100845.69;;;22.42;75.96
45541;BME280;31265;49.680;8.608;2022-09-01T08:32:59;100850.47;;;22.53;71.77
45541;BME280;31265;49.680;8.608;2022-09-01T08:35:37;100853.13;;;22.96;73.73
45541;BME280;31265;49.680;8.608;2022-09-01T08:38:08;100848.63;;;23.39;68.70
45541;BME280;31265;49.680;8.608;2022-09-01T08:40:37;100855.53;;;23.86;63.88
45541;BME280;31265;49.680;8.608;2022-09-01T08:43:13;100856.53;;;23.25;72.64
45541;BME280;31265;49.680;8.608;2022-09-01T08:45:48;100854.09;;;24.56;58.74
45541;BME280;31265;49.680;8.608;2022-09-01T08:48:20;100846.50;;;24.81;60.23
45541;BME280;31265;49.680;8.608;2022-09-01T08:51:14;100848.69;;;24.09;59.67
45541;BME280;31265;49.680;8.608;2022-09-01T08:54:01;100851.81;;;24.53;55.74
45541;BME280;31265;49.680;8.608;2022-09-01T08:56:31;100851.09;;;23.80;59.28
45541;BME280;31265;49.680;8.608;2022-09-01T08:59:05;100848.19;;;23.29;63.91
45541;BME280;31265;49.680;8.608;2022-09-01T09:01:59;100846.25;;;24.01;63.60
45541;BME280;31265;49.680;8.608;2022-09-01T09:04:46;100844.06;;;25.31;54.04
45541;BME280;31265;49.680;8.608;2022-09-01T09:07:24;100842.25;;;25.62;52.57
45541;BME280;31265;49.680;8.608;2022-09-01T09:09:58;100835.72;;;26.23;46.80
45541;BME280;31265;49.680;8.608;2022-09-01T09:12:41;100841.72;;;25.45;52.13
45541;BME280;31265;49.680;8.608;2022-09-01T09:15:21;100839.25;;;26.00;50.67
45541;BME280;31265;49.680;8.608;2022-09-01T09:18:15;100839.56;;;25.66;51.55
45541;BME280;31265;49.680;8.608;2022-09-01T09:21:07;100850.63;;;24.04;52.52
45541;BME280;31265;49.680;8.608;2022-09-01T09:23:42;100844.06;;;24.17;52.71
45541;BME280;31265;49.680;8.608;2022-09-01T09:26:11;100834.88;;;24.55;53.04
45541;BME280;31265;49.680;8.608;2022-09-01T09:28:42;100846.81;;;24.51;52.07
45541;BME280;31265;49.680;8.608;2022-09-01T09:31:27;100839.50;;;24.28;56.18
45541;BME280;31265;49.680;8.608;2022-09-01T09:33:58;100831.56;;;25.18;51.59
45541;BME280;31265;49.680;8.608;2022-09-01T09:36:32;100831.28;;;25.94;51.20
45541;BME280;31265;49.680;8.608;2022-09-01T09:39:10;100832.06;;;25.33;51.08
45541;BME280;31265;49.680;8.608;2022-09-01T09:41:39;100825.97;;;25.02;52.36
45541;BME280;31265;49.680;8.608;2022-09-01T09:44:18;100825.16;;;25.82;48.91
45541;BME280;31265;49.680;8.608;2022-09-01T09:46:49;100821.81;;;26.57;46.51
45541;BME280;31265;49.680;8.608;2022-09-01T09:49:20;100821.16;;;26.83;42.09
45541;BME280;31265;49.680;8.608;2022-09-01T09:52:14;100823.19;;;25.86;45.04
45541;BME280;31265;49.680;8.608;2022-09-01T09:54:58;100819.69;;;26.82;43.31
45541;BME280;31265;49.680;8.608;2022-09-01T09:57:28;100815.56;;;25.71;45.10
45541;BME280;31265;49.680;8.608;2022-09-01T10:00:00;100809.75;;;24.65;48.92
45541;BME280;31265;49.680;8.608;2022-09-01T10:02:39;100809.50;;;24.03;51.79
45541;BME280;31265;49.680;8.608;2022-09-01T10:05:27;100817.28;;;24.02;54.78
45541;BME280;31265;49.680;8.608;2022-09-01T10:07:56;100813.44;;;23.78;51.47
45541;BME280;31265;49.680;8.608;2022-09-01T10:10:30;100806.97;;;24.29;49.23
45541;BME280;31265;49.680;8.608;2022-09-01T10:12:58;100808.34;;;23.40;53.35
45541;BME280;31265;49.680;8.608;2022-09-01T10:15:31;100805.75;;;24.34;53.31
45541;BME280;31265;49.680;8.608;2022-09-01T10:18:05;100798.03;;;25.79;49.63
45541;BME280;31265;49.680;8.608;2022-09-01T10:20:58;100797.16;;;26.18;45.00
45541;BME280;31265;49.680;8.608;2022-09-01T10:23:28;100802.09;;;26.90;41.60
45541;BME280;31265;49.680;8.608;2022-09-01T10:26:03;100796.28;;;27.12;45.03
45541;BME280;31265;49.680;8.608;2022-09-01T10:28:43;100790.16;;;27.50;40.66
45541;BME280;31265;49.680;8.608;2022-09-01T10:31:17;100789.03;;;26.54;43.86
45541;BME280;31265;49.680;8.608;2022-09-01T10:33:45;100785.50;;;26.32;44.67
45541;BME280;31265;49.680;8.608;2022-09-01T10:36:15;100789.53;;;25.57;43.65
45541;BME280;31265;49.680;8.608;2022-09-01T10:38:45;100787.22;;;25.51;45.91
45541;BME280;31265;49.680;8.608;2022-09-01T10:41:52;100787.13;;;26.39;42.28
45541;BME280;31265;49.680;8.608;2022-09-01T10:44:27;100783.44;;;26.10;42.79
45541;BME280;31265;49.680;8.608;2022-09-01T10:47:01;100784.50;;;26.97;40.40
45541;BME280;31265;49.680;8.608;2022-09-01T10:52:55;100790.69;;;26.15;41.56
45541;BME280;31265;49.680;8.608;2022-09-01T10:55:28;100784.69;;;26.05;42.80
45541;BME280;31265;49.680;8.608;2022-09-01T10:58:07;100783.63;;;26.65;41.09
45541;BME280;31265;49.680;8.608;2022-09-01T11:01:00;100782.78;;;27.12;40.45
45541;BME280;31265;49.680;8.608;2022-09-01T11:03:53;100772.66;;;26.79;40.25
45541;BME280;31265;49.680;8.608;2022-09-01T11:06:42;100771.69;;;26.96;40.60
45541;BME280;31265;49.680;8.608;2022-09-01T11:09:35;100767.03;;;26.33;40.59
45541;BME280;31265;49.680;8.608;2022-09-01T11:12:20;100780.03;;;25.92;42.34
45541;BME280;31265;49.680;8.608;2022-09-01T11:14:57;100769.25;;;25.22;43.61
45541;BME280;31265;49.680;8.608;2022-09-01T11:17:28;100769.19;;;25.42;44.15
45541;BME280;31265;49.680;8.608;2022-09-01T11:20:07;100760.59;;;25.40;43.62
45541;BME280;31265;49.680;8.608;2022-09-01T11:22:37;100764.41;;;25.27;44.40
45541;BME280;31265;49.680;8.608;2022-09-01T11:25:37;100764.41;;;25.71;43.38
45541;BME280;31265;49.680;8.608;2022-09-01T11:31:10;100769.25;;;25.66;43.72
45541;BME280;31265;49.680;8.608;2022-09-01T11:33:45;100760.31;;;25.98;42.21
45541;BME280;31265;49.680;8.608;2022-09-01T11:36:26;100751.59;;;26.40;40.83
45541;BME280;31265;49.680;8.608;2022-09-01T11:39:02;100753.03;;;25.27;44.16
45541;BME280;31265;49.680;8.608;2022-09-01T11:41:41;100752.16;;;26.58;43.17
45541;BME280;31265;49.680;8.608;2022-09-01T11:44:16;100746.41;;;27.37;38.87
45541;BME280;31265;49.680;8.608;2022-09-01T11:46:45;100750.09;;;26.87;41.12
45541;BME280;31265;49.680;8.608;2022-09-01T11:49:29;100756.03;;;27.52;38.38
45541;BME280;31265;49.680;8.608;2022-09-01T11:51:58;100747.75;;;27.64;39.42
45541;BME280;31265;49.680;8.608;2022-09-01T11:54:29;100749.56;;;27.21;41.36
45541;BME280;31265;49.680;8.608;2022-09-01T11:57:18;100735.59;;;27.31;38.42
45541;BME280;31265;49.680;8.608;2022-09-01T11:59:47;100728.91;;;26.66;42.06
45541;BME280;31265;49.680;8.608;2022-09-01T12:02:19;100732.53;;;25.28;41.90
45541;BME280;31265;49.680;8.608;2022-09-01T12:04:49;100732.13;;;25.38;42.13
45541;BME280;31265;49.680;8.608;2022-09-01T12:07:36;100737.88;;;25.62;43.15
45541;BME280;31265;49.680;8.608;2022-09-01T12:10:14;100736.56;;;25.87;42.28
45541;BME280;31265;49.680;8.608;2022-09-01T12:12:43;100724.78;;;25.75;42.36
45541;BME280;31265;49.680;8.608;2022-09-01T12:15:19;100722.09;;;26.03;41.81
45541;BME280;31265;49.680;8.608;2022-09-01T12:17:48;100719.50;;;25.43;42.73
45541;BME280;31265;49.680;8.608;2022-09-01T12:20:27;100717.06;;;25.34;43.27
45541;BME280;31265;49.680;8.608;2022-09-01T12:22:58;100719.28;;;25.81;43.53
45541;BME280;31265;49.680;8.608;2022-09-01T12:25:29;100710.59;;;26.73;42.50
45541;BME280;31265;49.680;8.608;2022-09-01T12:28:01;100715.19;;;28.03;39.06
45541;BME280;31265;49.680;8.608;2022-09-01T12:30:30;100711.88;;;28.15;37.92
45541;BME280;31265;49.680;8.608;2022-09-01T12:33:02;100719.66;;;28.13;37.54
45541;BME280;31265;49.680;8.608;2022-09-01T12:35:49;100715.88;;;28.72;36.30
45541;BME280;31265;49.680;8.608;2022-09-01T12:38:28;100709.47;;;28.03;37.35
45541;BME280;31265;49.680;8.608;2022-09-01T12:40:57;100701.97;;;28.20;37.05
45541;BME280;31265;49.680;8.608;2022-09-01T12:43:27;100700.91;;;27.71;37.05
45541;BME280;31265;49.680;8.608;2022-09-01T12:45:56;100703.81;;;28.40;37.05
45541;BME280;31265;49.680;8.608;2022-09-01T12:48:27;100704.22;;;28.26;38.29
45541;BME280;31265;49.680;8.608;2022-09-01T12:51:00;100702.94;;;29.06;36.02
45541;BME280;31265;49.680;8.608;2022-09-01T12:53:32;100696.50;;;29.07;35.84
45541;BME280;31265;49.680;8.608;2022-09-01T12:56:19;100697.97;;;29.10;34.70
45541;BME280;31265;49.680;8.608;2022-09-01T12:58:50;100696.13;;;29.27;35.44
45541;BME280;31265;49.680;8.608;2022-09-01T13:01:31;100686.22;;;29.34;35.00
45541;BME280;31265;49.680;8.608;2022-09-01T13:04:23;100689.69;;;30.28;33.07
45541;BME280;31265;49.680;8.608;2022-09-01T13:06:53;100687.63;;;29.31;33.93
45541;BME280;31265;49.680;8.608;2022-09-01T13:09:23;100684.25;;;29.94;31.91
45541;BME280;31265;49.680;8.608;2022-09-01T13:11:51;100677.09;;;29.44;35.79
45541;BME280;31265;49.680;8.608;2022-09-01T13:14:36;100688.81;;;29.65;32.11
45541;BME280;31265;49.680;8.608;2022-09-01T13:17:04;100674.09;;;30.41;31.33
45541;BME280;31265;49.680;8.608;2022-09-01T13:19:40;100682.25;;;29.54;32.55
45541;BME280;31265;49.680;8.608;2022-09-01T13:22:08;100675.03;;;29.04;32.08
45541;BME280;31265;49.680;8.608;2022-09-01T13:24:37;100685.94;;;29.63;32.02
45541;BME280;31265;49.680;8.608;2022-09-01T13:27:06;100672.25;;;29.08;33.78
45541;BME280;31265;49.680;8.608;2022-09-01T13:29:51;100669.19;;;29.41;33.25